createdAt,value
2022-08-27T00:00:51.523Z,16.60
2022-08-27T00:03:55.581Z,16.60
2022-08-27T00:06:56.888Z,16.60
2022-08-27T00:09:59.438Z,16.60
2022-08-27T00:13:02.007Z,16.60
2022-08-27T00:16:07.136Z,16.60
2022-08-27T00:19:07.967Z,16.60
2022-08-27T00:22:10.164Z,16.60
2022-08-27T00:25:13.275Z,16.50
2022-08-27T00:28:15.412Z,16.50
2022-08-27T00:31:17.373Z,16.50
2022-08-27T00:34:19.482Z,16.50
2022-08-27T00:37:20.705Z,16.50
2022-08-27T00:40:23.465Z,16.50
2022-08-27T00:43:42.574Z,16.50
2022-08-27T00:46:54.233Z,16.50
2022-08-27T00:50:11.250Z,16.60
2022-08-27T00:53:17.964Z,16.60
2022-08-27T00:56:24.332Z,16.50
2022-08-27T00:59:32.988Z,16.60
2022-08-27T01:02:34.336Z,16.60
2022-08-27T01:05:38.205Z,16.60
2022-08-27T01:08:45.798Z,16.60
2022-08-27T01:11:48.376Z,16.60
2022-08-27T01:14:50.090Z,16.60
2022-08-27T01:17:51.916Z,16.60
2022-08-27T01:21:24.860Z,16.50
2022-08-27T01:24:48.669Z,16.50
2022-08-27T01:27:51.312Z,16.50
2022-08-27T01:30:52.736Z,16.60
2022-08-27T01:34:02.839Z,16.60
2022-08-27T01:37:06.713Z,16.70
2022-08-27T01:40:09.062Z,16.70
2022-08-27T01:43:10.596Z,16.70
2022-08-27T01:46:12.270Z,16.70
2022-08-27T01:49:13.283Z,16.70
2022-08-27T01:52:19.253Z,16.70
2022-08-27T01:55:25.205Z,16.70
2022-08-27T01:58:30.546Z,16.80
2022-08-27T02:01:31.617Z,16.80
2022-08-27T02:04:33.349Z,16.80
2022-08-27T02:07:34.472Z,16.70
2022-08-27T02:10:39.333Z,16.70
2022-08-27T02:13:40.443Z,16.60
2022-08-27T02:16:52.177Z,16.50
2022-08-27T02:19:53.704Z,16.60
2022-08-27T02:22:54.777Z,16.60
2022-08-27T02:25:55.966Z,16.60
2022-08-27T02:28:58.094Z,16.60
2022-08-27T02:32:00.091Z,16.60
2022-08-27T02:35:03.408Z,16.50
2022-08-27T02:38:04.769Z,16.60
2022-08-27T02:41:06.700Z,16.60
2022-08-27T02:44:10.296Z,16.60
2022-08-27T02:47:12.456Z,16.60
2022-08-27T02:50:14.681Z,16.50
2022-08-27T02:53:15.712Z,16.50
2022-08-27T02:56:17.335Z,16.50
2022-08-27T02:59:23.903Z,16.50
2022-08-27T03:02:25.780Z,16.50
2022-08-27T03:05:29.039Z,16.50
2022-08-27T03:08:30.358Z,16.60
2022-08-27T03:11:37.724Z,16.50
2022-08-27T03:14:38.986Z,16.50
2022-08-27T03:17:59.035Z,16.50
2022-08-27T03:21:02.174Z,16.60
2022-08-27T03:24:11.735Z,16.60
2022-08-27T03:27:15.938Z,16.70
2022-08-27T03:30:21.846Z,16.60
2022-08-27T03:33:23.232Z,16.60
2022-08-27T03:36:27.039Z,16.70
2022-08-27T03:39:28.264Z,16.60
2022-08-27T03:42:29.119Z,16.60
2022-08-27T03:45:30.430Z,16.60
2022-08-27T03:48:53.083Z,16.60
2022-08-27T03:51:59.045Z,16.60
2022-08-27T03:55:01.779Z,16.60
2022-08-27T03:58:03.502Z,16.60
2022-08-27T04:01:06.824Z,16.60
2022-08-27T04:04:07.915Z,16.60
2022-08-27T04:07:10.687Z,16.60
2022-08-27T04:10:13.959Z,16.50
2022-08-27T04:13:15.573Z,16.50
2022-08-27T04:16:17.278Z,16.60
2022-08-27T04:19:20.576Z,16.50
2022-08-27T04:22:23.965Z,16.50
2022-08-27T04:25:25.162Z,16.50
2022-08-27T04:28:26.545Z,16.50
2022-08-27T04:31:27.569Z,16.50
2022-08-27T04:34:30.320Z,16.40
2022-08-27T04:37:33.285Z,16.40
2022-08-27T04:40:54.728Z,16.50
2022-08-27T04:44:02.444Z,16.50
2022-08-27T04:47:06.151Z,16.50
2022-08-27T04:50:07.667Z,16.50
2022-08-27T04:53:10.964Z,16.50
2022-08-27T04:56:16.877Z,16.50
2022-08-27T04:59:17.654Z,16.50
2022-08-27T05:02:18.966Z,16.60
2022-08-27T05:05:20.254Z,16.50
2022-08-27T05:08:21.468Z,16.50
2022-08-27T05:11:27.309Z,16.60
2022-08-27T05:14:32.795Z,16.60
2022-08-27T05:17:34.068Z,16.60
2022-08-27T05:20:42.894Z,16.60
2022-08-27T05:23:43.629Z,16.60
2022-08-27T05:26:46.068Z,16.60
2022-08-27T05:29:46.896Z,16.60
2022-08-27T05:32:47.694Z,16.70
2022-08-27T05:35:55.906Z,16.70
2022-08-27T05:38:59.846Z,16.70
2022-08-27T05:42:00.786Z,16.70
2022-08-27T05:45:01.643Z,16.70
2022-08-27T05:48:03.157Z,16.70
2022-08-27T05:51:35.094Z,16.70
2022-08-27T05:54:35.962Z,16.70
2022-08-27T05:57:37.237Z,16.80
2022-08-27T06:01:01.680Z,16.90
2022-08-27T06:04:05.720Z,16.90
2022-08-27T06:07:09.419Z,16.90
2022-08-27T06:10:11.427Z,17.00
2022-08-27T06:13:12.668Z,17.00
2022-08-27T06:16:18.370Z,16.90
2022-08-27T06:19:19.800Z,16.90
2022-08-27T06:22:20.636Z,17.00
2022-08-27T06:25:21.535Z,16.90
2022-08-27T06:28:26.374Z,17.10
2022-08-27T06:31:28.255Z,17.10
2022-08-27T06:34:29.322Z,17.10
2022-08-27T06:37:31.120Z,17.20
2022-08-27T06:40:32.311Z,17.20
2022-08-27T06:43:36.128Z,17.20
2022-08-27T06:46:37.525Z,17.30
2022-08-27T06:49:41.583Z,17.40
2022-08-27T06:52:47.730Z,17.40
2022-08-27T06:55:50.178Z,17.40
2022-08-27T06:59:00.668Z,17.50
2022-08-27T07:02:01.910Z,17.60
2022-08-27T07:05:02.683Z,17.60
2022-08-27T07:08:05.014Z,17.70
2022-08-27T07:11:08.703Z,17.80
2022-08-27T07:14:10.042Z,17.80
2022-08-27T07:17:15.849Z,17.70
2022-08-27T07:20:20.637Z,17.70
2022-08-27T07:23:21.792Z,17.70
2022-08-27T07:26:23.964Z,17.80
2022-08-27T07:29:28.250Z,17.90
2022-08-27T07:32:31.769Z,17.90
2022-08-27T07:35:32.835Z,18.00
2022-08-27T07:38:35.739Z,18.10
2022-08-27T07:41:57.012Z,18.10
2022-08-27T07:44:58.599Z,18.20
2022-08-27T07:47:59.512Z,18.30
2022-08-27T07:51:05.346Z,18.40
2022-08-27T07:54:06.672Z,18.50
2022-08-27T07:57:08.690Z,18.70
2022-08-27T08:00:12.479Z,18.80
2022-08-27T08:03:13.712Z,19.00
2022-08-27T08:06:16.774Z,19.10
2022-08-27T08:09:18.438Z,19.20
2022-08-27T08:12:26.273Z,19.10
2022-08-27T08:15:27.914Z,19.40
2022-08-27T08:18:29.040Z,19.60
2022-08-27T08:21:30.169Z,19.30
2022-08-27T08:24:31.854Z,19.20
2022-08-27T08:27:32.918Z,19.40
2022-08-27T08:30:35.500Z,19.70
2022-08-27T08:33:37.600Z,19.90
2022-08-27T08:36:38.693Z,19.60
2022-08-27T08:39:39.950Z,19.80
2022-08-27T08:42:51.365Z,19.70
2022-08-27T08:45:54.505Z,19.70
2022-08-27T08:49:05.797Z,19.70
2022-08-27T08:52:31.622Z,19.70
2022-08-27T08:55:59.558Z,19.80
2022-08-27T08:59:23.702Z,19.90
2022-08-27T09:02:24.795Z,19.50
2022-08-27T09:05:28.260Z,19.60
2022-08-27T09:08:41.153Z,19.80
2022-08-27T09:11:59.411Z,19.40
2022-08-27T09:15:18.910Z,19.60
2022-08-27T09:18:19.747Z,19.50
2022-08-27T09:21:43.032Z,19.30
2022-08-27T09:25:09.415Z,19.30
2022-08-27T09:28:43.866Z,19.40
2022-08-27T09:32:05.856Z,19.40
2022-08-27T09:35:11.561Z,19.60
2022-08-27T09:38:28.542Z,19.30
2022-08-27T09:41:47.424Z,19.50
2022-08-27T09:44:53.384Z,19.60
2022-08-27T09:48:07.711Z,19.80
2022-08-27T09:51:14.398Z,19.90
2022-08-27T09:54:42.667Z,19.70
2022-08-27T09:57:43.642Z,19.70
2022-08-27T10:00:46.746Z,19.60
2022-08-27T10:03:49.628Z,19.80
2022-08-27T10:06:52.336Z,20.00
2022-08-27T10:10:05.862Z,20.20
2022-08-27T10:13:20.009Z,20.10
2022-08-27T10:17:05.156Z,20.30
2022-08-27T10:20:44.933Z,20.80
2022-08-27T10:24:11.653Z,20.90
2022-08-27T10:27:39.543Z,21.10
2022-08-27T10:31:11.699Z,20.50
2022-08-27T10:34:34.505Z,20.80
2022-08-27T10:38:10.020Z,20.60
2022-08-27T10:41:35.341Z,21.10
2022-08-27T10:44:46.382Z,21.30
2022-08-27T10:48:01.503Z,21.50
2022-08-27T10:51:41.680Z,21.50
2022-08-27T10:55:22.419Z,21.60
2022-08-27T10:58:43.477Z,21.80
2022-08-27T11:02:02.766Z,22.00
2022-08-27T11:05:18.267Z,22.20
2022-08-27T11:08:28.966Z,22.30
2022-08-27T11:12:12.893Z,22.10
2022-08-27T11:15:17.008Z,22.40
2022-08-27T11:18:39.335Z,22.80
2022-08-27T11:22:02.956Z,23.50
2022-08-27T11:25:15.969Z,24.10
2022-08-27T11:28:29.723Z,24.70
2022-08-27T11:31:48.891Z,24.90
2022-08-27T11:34:59.153Z,24.90
2022-08-27T11:38:30.226Z,24.30
2022-08-27T11:42:01.770Z,24.30
2022-08-27T11:45:38.784Z,24.30
2022-08-27T11:48:57.190Z,24.40
2022-08-27T11:52:08.621Z,24.20
2022-08-27T11:55:13.199Z,24.70
2022-08-27T11:58:21.869Z,24.70
2022-08-27T12:01:32.171Z,24.40
2022-08-27T12:04:41.923Z,24.60
2022-08-27T12:07:46.196Z,25.30
2022-08-27T12:11:37.067Z,26.00
2022-08-27T12:15:05.116Z,26.20
2022-08-27T12:18:41.743Z,26.70
2022-08-27T12:22:30.092Z,26.70
2022-08-27T12:25:31.439Z,27.00
2022-08-27T12:28:32.198Z,28.20
2022-08-27T12:31:36.061Z,28.10
2022-08-27T12:35:10.939Z,28.60
2022-08-27T12:38:32.523Z,29.70
2022-08-27T12:41:44.258Z,29.90
2022-08-27T12:44:45.799Z,30.70
2022-08-27T12:47:51.048Z,30.90
2022-08-27T12:51:14.221Z,30.70
2022-08-27T12:54:42.908Z,31.90
2022-08-27T12:58:22.307Z,32.70
2022-08-27T13:02:12.444Z,31.60
2022-08-27T13:05:19.432Z,31.70
2022-08-27T13:08:36.177Z,31.60
2022-08-27T13:11:55.768Z,31.70
2022-08-27T13:15:09.051Z,31.80
2022-08-27T13:18:12.176Z,31.30
2022-08-27T13:21:29.518Z,31.70
2022-08-27T13:24:48.927Z,32.00
2022-08-27T13:28:13.658Z,32.80
2022-08-27T13:31:16.855Z,30.30
2022-08-27T13:34:24.143Z,29.70
2022-08-27T13:37:34.088Z,31.50
2022-08-27T13:40:56.844Z,32.70
2022-08-27T13:44:05.953Z,32.70
2022-08-27T13:47:20.979Z,31.80
2022-08-27T13:50:30.229Z,31.80
2022-08-27T13:53:52.823Z,32.80
2022-08-27T13:56:55.205Z,33.20
2022-08-27T13:59:56.523Z,33.30
2022-08-27T14:03:01.044Z,32.90
2022-08-27T14:06:02.791Z,32.60
2022-08-27T14:09:29.463Z,31.80
2022-08-27T14:12:42.349Z,30.30
2022-08-27T14:15:55.425Z,29.20
2022-08-27T14:19:28.546Z,28.90
2022-08-27T14:22:37.200Z,29.70
2022-08-27T14:25:38.281Z,30.40
2022-08-27T14:28:39.298Z,30.90
2022-08-27T14:31:40.386Z,30.80
2022-08-27T14:34:41.394Z,30.90
2022-08-27T14:37:44.987Z,31.10
2022-08-27T14:40:49.102Z,30.30
2022-08-27T14:43:50.349Z,29.40
2022-08-27T14:46:53.247Z,29.10
2022-08-27T14:49:54.726Z,27.80
2022-08-27T14:52:55.958Z,26.90
2022-08-27T14:55:59.457Z,25.90
2022-08-27T14:59:00.215Z,25.70
2022-08-27T15:02:07.116Z,25.70
2022-08-27T15:05:11.779Z,25.50
2022-08-27T15:08:13.564Z,24.70
2022-08-27T15:11:26.670Z,24.30
2022-08-27T15:14:37.368Z,24.90
2022-08-27T15:17:38.732Z,25.00
2022-08-27T15:20:41.804Z,25.20
2022-08-27T15:23:47.624Z,25.30
2022-08-27T15:26:51.673Z,25.30
2022-08-27T15:29:53.334Z,24.70
2022-08-27T15:32:55.037Z,24.20
2022-08-27T15:35:58.921Z,23.70
2022-08-27T15:39:02.424Z,23.50
2022-08-27T15:42:06.805Z,23.10
2022-08-27T15:45:15.122Z,22.80
2022-08-27T15:48:16.497Z,22.70
2022-08-27T15:51:25.406Z,23.00
2022-08-27T15:54:26.728Z,23.10
2022-08-27T15:57:27.762Z,22.80
2022-08-27T16:00:33.918Z,22.60
2022-08-27T16:03:35.868Z,22.70
2022-08-27T16:06:38.786Z,23.50
2022-08-27T16:09:40.640Z,24.40
2022-08-27T16:12:41.908Z,25.10
2022-08-27T16:15:43.360Z,25.50
2022-08-27T16:18:44.512Z,25.10
2022-08-27T16:21:47.495Z,24.20
2022-08-27T16:24:50.564Z,22.80
2022-08-27T16:27:51.679Z,22.30
2022-08-27T16:30:55.929Z,21.80
2022-08-27T16:33:57.573Z,21.90
2022-08-27T16:36:58.637Z,21.90
2022-08-27T16:40:00.094Z,21.70
2022-08-27T16:43:01.893Z,21.50
2022-08-27T16:46:03.684Z,21.40
2022-08-27T16:49:23.413Z,21.40
2022-08-27T16:52:24.682Z,21.20
2022-08-27T16:55:25.758Z,21.10
2022-08-27T16:58:31.012Z,21.00
2022-08-27T17:01:33.521Z,21.10
2022-08-27T17:04:36.686Z,21.10
2022-08-27T17:07:44.075Z,21.00
2022-08-27T17:10:53.422Z,20.90
2022-08-27T17:13:58.881Z,20.90
2022-08-27T17:17:00.556Z,20.80
2022-08-27T17:20:02.759Z,20.40
2022-08-27T17:23:05.448Z,20.10
2022-08-27T17:26:10.851Z,20.10
2022-08-27T17:29:12.101Z,20.20
2022-08-27T17:32:13.477Z,20.60
2022-08-27T17:35:15.599Z,20.70
2022-08-27T17:38:17.181Z,20.90
2022-08-27T17:41:34.540Z,21.10
2022-08-27T17:44:37.790Z,21.00
2022-08-27T17:47:38.835Z,20.50
2022-08-27T17:50:39.841Z,20.50
2022-08-27T17:53:47.836Z,20.10
2022-08-27T17:56:49.087Z,19.90
2022-08-27T17:59:51.372Z,19.70
2022-08-27T18:02:53.804Z,19.50
2022-08-27T18:05:55.086Z,19.50
2022-08-27T18:08:56.262Z,19.50
2022-08-27T18:11:58.648Z,19.40
2022-08-27T18:15:20.539Z,19.40
2022-08-27T18:18:21.878Z,19.50
2022-08-27T18:21:25.412Z,19.50
2022-08-27T18:24:27.590Z,19.30
2022-08-27T18:27:32.901Z,19.30
2022-08-27T18:30:34.984Z,19.20
2022-08-27T18:33:37.610Z,19.10
2022-08-27T18:36:38.737Z,19.00
2022-08-27T18:39:40.783Z,19.00
2022-08-27T18:42:42.512Z,18.80
2022-08-27T18:45:43.816Z,18.70
2022-08-27T18:48:45.712Z,18.70
2022-08-27T18:51:50.643Z,18.60
2022-08-27T18:54:53.768Z,18.60
2022-08-27T18:57:55.143Z,18.60
2022-08-27T19:01:02.151Z,18.60
2022-08-27T19:04:05.229Z,18.50
2022-08-27T19:07:06.583Z,18.50
2022-08-27T19:10:08.114Z,18.50
2022-08-27T19:13:12.119Z,18.50
2022-08-27T19:16:46.126Z,18.40
2022-08-27T19:19:50.817Z,18.40
2022-08-27T19:22:51.896Z,18.30
2022-08-27T19:25:54.185Z,18.30
2022-08-27T19:28:58.381Z,18.20
2022-08-27T19:31:59.424Z,18.10
2022-08-27T19:35:01.135Z,18.10
2022-08-27T19:38:02.660Z,18.00
2022-08-27T19:41:05.390Z,17.90
2022-08-27T19:44:06.801Z,17.90
2022-08-27T19:47:11.066Z,17.90
2022-08-27T19:50:19.255Z,17.80
2022-08-27T19:53:20.670Z,17.80
2022-08-27T19:56:22.003Z,17.80
2022-08-27T19:59:22.828Z,17.80
2022-08-27T20:02:24.199Z,17.80
2022-08-27T20:05:25.345Z,17.80
2022-08-27T20:08:26.572Z,17.70
2022-08-27T20:11:27.743Z,17.70
2022-08-27T20:14:29.154Z,17.60
2022-08-27T20:17:32.012Z,17.60
2022-08-27T20:20:34.270Z,17.50
2022-08-27T20:23:35.692Z,17.50
2022-08-27T20:26:36.775Z,17.40
2022-08-27T20:29:37.996Z,17.40
2022-08-27T20:32:39.371Z,17.40
2022-08-27T20:35:40.362Z,17.30
2022-08-27T20:38:41.971Z,17.30
2022-08-27T20:41:43.104Z,17.20
2022-08-27T20:44:45.487Z,17.20
2022-08-27T20:47:49.904Z,17.20
2022-08-27T20:50:51.153Z,17.20
2022-08-27T20:53:52.884Z,17.30
2022-08-27T20:56:53.928Z,17.20
2022-08-27T21:00:13.597Z,17.20
2022-08-27T21:03:15.319Z,17.30
2022-08-27T21:06:16.197Z,17.20
2022-08-27T21:09:17.098Z,17.20
2022-08-27T21:12:22.564Z,17.20
2022-08-27T21:15:24.415Z,17.10
2022-08-27T21:18:29.642Z,17.10
2022-08-27T21:21:31.335Z,17.00
2022-08-27T21:24:34.004Z,17.00
2022-08-27T21:27:35.017Z,17.00
2022-08-27T21:30:37.347Z,17.00
2022-08-27T21:33:39.525Z,16.80
2022-08-27T21:36:40.890Z,16.70
2022-08-27T21:39:44.097Z,16.60
2022-08-27T21:42:45.026Z,16.50
2022-08-27T21:45:46.436Z,16.50
2022-08-27T21:48:58.465Z,16.70
2022-08-27T21:52:06.199Z,16.60
2022-08-27T21:55:08.043Z,16.50
2022-08-27T21:58:09.082Z,16.40
2022-08-27T22:01:10.079Z,16.30
2022-08-27T22:04:11.525Z,16.20
2022-08-27T22:07:13.368Z,16.10
2022-08-27T22:10:14.984Z,16.10
2022-08-27T22:13:17.006Z,16.00
2022-08-27T22:16:19.156Z,15.90
2022-08-27T22:19:21.573Z,15.80
2022-08-27T22:22:23.013Z,15.80
2022-08-27T22:25:24.242Z,15.80
2022-08-27T22:28:25.145Z,15.80
2022-08-27T22:31:26.588Z,15.80
2022-08-27T22:34:27.610Z,15.80
2022-08-27T22:37:29.109Z,15.80
2022-08-27T22:40:31.371Z,15.80
2022-08-27T22:43:36.362Z,15.90
2022-08-27T22:46:37.308Z,15.90
2022-08-27T22:49:38.746Z,15.90
2022-08-27T22:52:44.183Z,15.90
2022-08-27T22:55:49.873Z,16.00
2022-08-27T22:58:51.452Z,16.00
2022-08-27T23:01:55.818Z,16.00
2022-08-27T23:04:57.401Z,16.10
2022-08-27T23:07:59.069Z,16.10
2022-08-27T23:10:59.885Z,16.00
2022-08-27T23:14:01.220Z,15.80
2022-08-27T23:17:02.763Z,15.70
2022-08-27T23:20:07.342Z,15.80
2022-08-27T23:23:10.225Z,15.70
2022-08-27T23:26:30.056Z,15.50
2022-08-27T23:29:31.939Z,15.50
2022-08-27T23:32:33.096Z,15.40
2022-08-27T23:35:34.732Z,15.40
2022-08-27T23:38:35.919Z,15.40
2022-08-27T23:41:36.920Z,15.50
2022-08-27T23:44:38.295Z,15.60
2022-08-27T23:47:39.076Z,15.50
2022-08-27T23:50:40.966Z,15.40
2022-08-27T23:53:42.258Z,15.40
2022-08-27T23:56:43.087Z,15.20
2022-08-27T23:59:43.978Z,15.00
